JES1519 SAZM-SABE
Flight info
| Callsign | JES1519 |
|---|---|
| Flight time | N/A |
| Altitude | 27000 |
| Route | PULPA1G PULPA UW31 TENIL TENIL8R |
| Aircraft | A20N/M-SDE2E3FGHIRWXY/LB1 |
Departure
| Time | 2026-04-26 19:44 |
|---|---|
| Airport | Ástor Piazzola International Airport (SAZM) |
Arrival
| Time | N/A |
|---|---|
| Airport | Aeroparque Jorge Newbery (SABE) |
| Time | Latitude | Longitude | Altitude | Speed | Heading |
|---|---|---|---|---|---|
| 2026-04-26 19:27 | -37.93392 | -57.58048 | 77 ft | 0 kts | 295° |
| 2026-04-26 19:36 | -37.93393 | -57.58045 | 66 ft | 1 kts | 304° |
| 2026-04-26 19:36 | -37.93397 | -57.58038 | 66 ft | 3 kts | 338° |
| 2026-04-26 19:37 | -37.93403 | -57.58036 | 68 ft | 0 kts | 14° |
| 2026-04-26 19:40 | -37.93395 | -57.58030 | 67 ft | 4 kts | 28° |
| 2026-04-26 19:40 | -37.93393 | -57.57955 | 72 ft | 14 kts | 118° |
| 2026-04-26 19:40 | -37.93444 | -57.57836 | 74 ft | 15 kts | 120° |
| 2026-04-26 19:41 | -37.93509 | -57.57691 | 74 ft | 20 kts | 120° |
| 2026-04-26 19:41 | -37.93584 | -57.57518 | 73 ft | 23 kts | 120° |
| 2026-04-26 19:41 | -37.93674 | -57.57316 | 68 ft | 27 kts | 119° |
| 2026-04-26 19:41 | -37.93706 | -57.57243 | 70 ft | 28 kts | 118° |
| 2026-04-26 19:42 | -37.93857 | -57.56902 | 72 ft | 27 kts | 118° |
| 2026-04-26 19:42 | -37.93924 | -57.56749 | 65 ft | 33 kts | 119° |
| 2026-04-26 19:42 | -37.93995 | -57.56591 | 65 ft | 6 kts | 120° |
| 2026-04-26 19:42 | -37.94032 | -57.56456 | 71 ft | 21 kts | 74° |
| 2026-04-26 19:43 | -37.94010 | -57.56406 | 69 ft | 6 kts | 66° |
| 2026-04-26 19:43 | -37.93954 | -57.56312 | 67 ft | 7 kts | 2° |
| 2026-04-26 19:43 | -37.93886 | -57.56418 | 71 ft | 29 kts | 303° |
| 2026-04-26 19:43 | -37.93650 | -57.56881 | 73 ft | 93 kts | 302° |
| 2026-04-26 19:44 | -37.93209 | -57.57742 | 242 ft | 127 kts | 302° |
| 2026-04-26 19:44 | -37.92678 | -57.58690 | 749 ft | 138 kts | 299° |
| 2026-04-26 19:44 | -37.92123 | -57.59715 | 1424 ft | 141 kts | 294° |
| 2026-04-26 19:44 | -37.91633 | -57.60748 | 2203 ft | 140 kts | 291° |
| 2026-04-26 19:45 | -37.91102 | -57.61878 | 2652 ft | 159 kts | 291° |
| 2026-04-26 19:45 | -37.90499 | -57.63151 | 3140 ft | 179 kts | 291° |
| 2026-04-26 19:45 | -37.89807 | -57.64612 | 3547 ft | 205 kts | 291° |
| 2026-04-26 19:45 | -37.89029 | -57.66244 | 4124 ft | 226 kts | 291° |
| 2026-04-26 19:46 | -37.88197 | -57.67955 | 5009 ft | 233 kts | 291° |
| 2026-04-26 19:46 | -37.87339 | -57.69718 | 5829 ft | 242 kts | 292° |
| 2026-04-26 19:46 | -37.86442 | -57.71556 | 6713 ft | 249 kts | 294° |
| 2026-04-26 19:46 | -37.85260 | -57.73183 | 7538 ft | 270 kts | 317° |
| 2026-04-26 19:47 | -37.83424 | -57.74118 | 8396 ft | 294 kts | 345° |
| 2026-04-26 19:47 | -37.82054 | -57.74208 | 8991 ft | 302 kts | 354° |
| 2026-04-26 19:47 | -37.79195 | -57.73997 | 9512 ft | 309 kts | 359° |
| 2026-04-26 19:47 | -37.77051 | -57.73759 | 9608 ft | 309 kts | 359° |
| 2026-04-26 19:48 | -37.74905 | -57.73545 | 9623 ft | 308 kts | 358° |
| 2026-04-26 19:48 | -37.72769 | -57.73366 | 9625 ft | 307 kts | 358° |
| 2026-04-26 19:48 | -37.70634 | -57.73210 | 9628 ft | 307 kts | 357° |
| 2026-04-26 19:48 | -37.68529 | -57.73067 | 9633 ft | 306 kts | 357° |
| 2026-04-26 19:49 | -37.66384 | -57.72927 | 9635 ft | 306 kts | 357° |
| 2026-04-26 19:49 | -37.64259 | -57.72789 | 9644 ft | 306 kts | 356° |
| 2026-04-26 19:49 | -37.62129 | -57.72652 | 9648 ft | 306 kts | 356° |
| 2026-04-26 19:49 | -37.60032 | -57.72515 | 9651 ft | 305 kts | 356° |
| 2026-04-26 19:50 | -37.57905 | -57.72376 | 9657 ft | 305 kts | 356° |
| 2026-04-26 19:50 | -37.55786 | -57.72237 | 9660 ft | 305 kts | 356° |
| 2026-04-26 19:50 | -37.53664 | -57.72098 | 9663 ft | 306 kts | 356° |
| 2026-04-26 19:50 | -37.51539 | -57.71959 | 9660 ft | 305 kts | 356° |
| 2026-04-26 19:51 | -37.49415 | -57.71819 | 9665 ft | 305 kts | 356° |
| 2026-04-26 19:51 | -37.47298 | -57.71680 | 9670 ft | 305 kts | 356° |
| 2026-04-26 19:51 | -37.45129 | -57.71544 | 9675 ft | 325 kts | 356° |
| 2026-04-26 19:51 | -37.42775 | -57.71403 | 9667 ft | 343 kts | 357° |
| 2026-04-26 19:52 | -37.40454 | -57.71245 | 9683 ft | 332 kts | 357° |
| 2026-04-26 19:52 | -37.38194 | -57.71082 | 9671 ft | 317 kts | 357° |
| 2026-04-26 19:52 | -37.36032 | -57.70924 | 9638 ft | 308 kts | 357° |
| 2026-04-26 19:52 | -37.33895 | -57.70760 | 9641 ft | 309 kts | 357° |
| 2026-04-26 19:53 | -37.31759 | -57.70595 | 9850 ft | 318 kts | 357° |
| 2026-04-26 19:53 | -37.29466 | -57.70429 | 10102 ft | 341 kts | 357° |
| 2026-04-26 19:53 | -37.27033 | -57.70248 | 10638 ft | 354 kts | 358° |
| 2026-04-26 19:53 | -37.24557 | -57.70052 | 11485 ft | 357 kts | 358° |
| 2026-04-26 19:54 | -37.22094 | -57.69855 | 12301 ft | 361 kts | 358° |
| 2026-04-26 19:54 | -37.19574 | -57.69655 | 13137 ft | 364 kts | 359° |
| 2026-04-26 19:54 | -37.17034 | -57.69454 | 13883 ft | 368 kts | 359° |
| 2026-04-26 19:54 | -37.14456 | -57.69253 | 14572 ft | 373 kts | 359° |
| 2026-04-26 19:55 | -37.11847 | -57.69050 | 15260 ft | 378 kts | 359° |
| 2026-04-26 19:55 | -37.09202 | -57.68844 | 15931 ft | 383 kts | 359° |
| 2026-04-26 19:55 | -37.06585 | -57.68641 | 16586 ft | 387 kts | 360° |
| 2026-04-26 19:55 | -37.03875 | -57.68430 | 17238 ft | 392 kts | 360° |
| 2026-04-26 19:56 | -37.01135 | -57.68219 | 17902 ft | 397 kts | 0° |
| 2026-04-26 19:56 | -36.98368 | -57.68200 | 18482 ft | 398 kts | 352° |
| 2026-04-26 19:56 | -36.95638 | -57.68501 | 19063 ft | 401 kts | 351° |
| 2026-04-26 19:56 | -36.92840 | -57.68809 | 19641 ft | 405 kts | 352° |
| 2026-04-26 19:57 | -36.90014 | -57.69114 | 20208 ft | 409 kts | 352° |
| 2026-04-26 19:57 | -36.87162 | -57.69421 | 20779 ft | 413 kts | 352° |
| 2026-04-26 19:57 | -36.84281 | -57.69729 | 21348 ft | 416 kts | 352° |
| 2026-04-26 19:57 | -36.81377 | -57.70040 | 21895 ft | 420 kts | 353° |
| 2026-04-26 19:58 | -36.78482 | -57.70348 | 22446 ft | 424 kts | 353° |
| 2026-04-26 19:58 | -36.75524 | -57.70664 | 22991 ft | 428 kts | 353° |
| 2026-04-26 19:58 | -36.72546 | -57.70981 | 23505 ft | 431 kts | 353° |
| 2026-04-26 19:58 | -36.69548 | -57.71299 | 24017 ft | 433 kts | 353° |
| 2026-04-26 19:59 | -36.66545 | -57.71616 | 24567 ft | 433 kts | 352° |
| 2026-04-26 19:59 | -36.63538 | -57.71932 | 25114 ft | 433 kts | 351° |
| 2026-04-26 19:59 | -36.60536 | -57.72247 | 25625 ft | 434 kts | 351° |
| 2026-04-26 19:59 | -36.57518 | -57.72564 | 26087 ft | 436 kts | 350° |
| 2026-04-26 20:00 | -36.54494 | -57.72881 | 26545 ft | 437 kts | 350° |
| 2026-04-26 20:00 | -36.51451 | -57.73200 | 26997 ft | 439 kts | 349° |
| 2026-04-26 20:00 | -36.48434 | -57.73516 | 27423 ft | 440 kts | 349° |
| 2026-04-26 20:00 | -36.45365 | -57.73837 | 27714 ft | 442 kts | 348° |
| 2026-04-26 20:01 | -36.42302 | -57.74159 | 27790 ft | 442 kts | 348° |
| 2026-04-26 20:01 | -36.39237 | -57.74480 | 27791 ft | 441 kts | 348° |
| 2026-04-26 20:01 | -36.36183 | -57.74802 | 27789 ft | 440 kts | 348° |
| 2026-04-26 20:01 | -36.33130 | -57.75124 | 27797 ft | 440 kts | 347° |
| 2026-04-26 20:02 | -36.30075 | -57.75446 | 27797 ft | 440 kts | 347° |
| 2026-04-26 20:02 | -36.27026 | -57.75767 | 27802 ft | 439 kts | 347° |
| 2026-04-26 20:02 | -36.23975 | -57.76088 | 27805 ft | 439 kts | 347° |
| 2026-04-26 20:02 | -36.21959 | -57.76300 | 27802 ft | 438 kts | 347° |
| 2026-04-26 20:03 | -36.17939 | -57.76721 | 27805 ft | 438 kts | 346° |
| 2026-04-26 20:03 | -36.14900 | -57.77040 | 27804 ft | 437 kts | 346° |
| 2026-04-26 20:03 | -36.11868 | -57.77357 | 27807 ft | 436 kts | 346° |
| 2026-04-26 20:03 | -36.08843 | -57.77674 | 27806 ft | 436 kts | 346° |
| 2026-04-26 20:04 | -36.05816 | -57.77990 | 27808 ft | 435 kts | 345° |
| 2026-04-26 20:04 | -36.02801 | -57.78305 | 27821 ft | 435 kts | 345° |
| 2026-04-26 20:04 | -35.99821 | -57.78617 | 27815 ft | 434 kts | 345° |
| 2026-04-26 20:04 | -35.96810 | -57.78931 | 27812 ft | 433 kts | 345° |
| 2026-04-26 20:05 | -35.93805 | -57.79244 | 27814 ft | 433 kts | 345° |
| 2026-04-26 20:05 | -35.90797 | -57.79558 | 27814 ft | 433 kts | 344° |
| 2026-04-26 20:05 | -35.87798 | -57.79871 | 27815 ft | 432 kts | 344° |
| 2026-04-26 20:05 | -35.85809 | -57.80078 | 27815 ft | 432 kts | 344° |